Time;durP1;ratioP1;P1;durP2;ratioP2;P2;SDS_P1;SDS_P2;PMS_P1;PMS_P2;Temp;Humidity;BMP_temperature;BMP_pressure;BME280_temperature;BME280_humidity;BME280_pressure;Samples;Min_cycle;Max_cycle;Signal;HPM_P1;HPM_P2
2023/06/24 00:00:18;;;;;;;0.10;0.10;;;;;;;17.19;nan;101348.13;5014463;28;20269;-80
2023/06/24 00:02:45;;;;;;;0.10;0.10;;;;;;;17.11;nan;101339.31;5017641;28;20074;-79
2023/06/24 00:05:10;;;;;;;0.10;0.10;;;;;;;17.05;nan;101343.53;5019973;28;20033;-80
2023/06/24 00:07:44;;;;;;;0.10;0.10;;;;;;;17.00;nan;101339.72;5025407;28;20036;-80
2023/06/24 00:10:13;;;;;;;0.10;0.10;;;;;;;16.97;nan;101340.88;5005339;28;20049;-80
2023/06/24 00:12:41;;;;;;;0.10;0.10;;;;;;;16.97;nan;101340.88;5024958;28;20038;-80
2023/06/24 00:15:09;;;;;;;0.10;0.10;;;;;;;16.94;nan;101338.56;5023131;28;20375;-80
2023/06/24 00:17:34;;;;;;;0.10;0.10;;;;;;;16.91;nan;101339.72;5023771;28;20029;-80
2023/06/24 00:20:00;;;;;;;0.10;0.10;;;;;;;16.88;nan;101341.94;5018185;28;21458;-80
2023/06/24 00:22:25;;;;;;;0.13;0.13;;;;;;;16.86;nan;101342.09;5021884;28;20030;-80
2023/06/24 00:24:50;;;;;;;0.10;0.10;;;;;;;16.84;nan;101332.59;5033394;28;20177;-80
2023/06/24 00:27:15;;;;;;;0.10;0.10;;;;;;;16.84;nan;101344.09;5030367;28;20044;-80
2023/06/24 00:29:41;;;;;;;0.10;0.10;;;;;;;16.88;nan;101345.44;5014088;28;20115;-80
2023/06/24 00:32:07;;;;;;;0.10;0.10;;;;;;;17.01;nan;101336.84;5024844;28;20052;-80
2023/06/24 00:34:32;;;;;;;0.10;0.10;;;;;;;17.07;nan;101336.16;5024393;28;20097;-80
2023/06/24 00:36:57;;;;;;;0.10;0.10;;;;;;;17.11;nan;101342.84;5028192;28;20570;-79
2023/06/24 00:39:23;;;;;;;0.10;0.10;;;;;;;17.07;nan;101338.84;5026643;28;20030;-79
2023/06/24 00:41:48;;;;;;;0.10;0.10;;;;;;;17.00;nan;101340.53;5026644;28;20057;-79
2023/06/24 00:44:14;;;;;;;0.10;0.10;;;;;;;16.95;nan;101340.25;5013315;28;20431;-80
2023/06/24 00:46:39;;;;;;;0.10;0.10;;;;;;;16.96;nan;101349.91;5026087;28;20068;-79
2023/06/24 00:49:05;;;;;;;0.10;0.10;;;;;;;17.09;nan;101338.66;5030163;28;20033;-79
2023/06/24 00:51:31;;;;;;;0.10;0.10;;;;;;;17.31;nan;101343.22;5007580;28;20074;-79
2023/06/24 00:53:57;;;;;;;0.10;0.10;;;;;;;17.40;nan;101346.69;5026355;28;20100;-79
2023/06/24 00:56:34;;;;;;;0.10;0.10;;;;;;;17.43;nan;101346.31;5011896;28;20101;-81
2023/06/24 00:59:01;;;;;;;0.10;0.10;;;;;;;17.47;nan;101349.47;5030537;28;20091;-82
2023/06/24 01:01:28;;;;;;;0.10;0.10;;;;;;;17.45;nan;101354.16;5008761;28;20026;-80
2023/06/24 01:03:53;;;;;;;0.10;0.10;;;;;;;17.33;nan;101348.41;5013089;28;20046;-82
2023/06/24 01:06:18;;;;;;;0.10;0.10;;;;;;;17.22;nan;101354.13;5027200;28;20041;-83
2023/06/24 01:08:50;;;;;;;0.10;0.10;;;;;;;17.11;nan;101355.34;5033222;28;20295;-81
2023/06/24 01:11:15;;;;;;;0.17;0.17;;;;;;;17.03;nan;101352.72;5013022;28;20033;-81
2023/06/24 01:13:41;;;;;;;0.10;0.10;;;;;;;16.96;nan;101357.91;5013505;28;20524;-82
2023/06/24 01:16:11;;;;;;;0.10;0.10;;;;;;;16.90;nan;101361.28;5021377;28;20087;-82
2023/06/24 01:19:00;;;;;;;0.10;0.10;;;;;;;16.91;nan;101360.28;5008763;28;20034;-80
2023/06/24 01:22:00;;;;;;;0.10;0.10;;;;;;;16.97;nan;101352.41;5001281;28;20038;-81
2023/06/24 01:24:47;;;;;;;0.10;0.10;;;;;;;17.04;nan;101363.25;5009618;28;20045;-80
2023/06/24 01:27:28;;;;;;;0.10;0.10;;;;;;;17.11;nan;101353.53;5013805;28;20380;-80
2023/06/24 01:30:09;;;;;;;0.10;0.10;;;;;;;17.13;nan;101356.84;5021184;28;20038;-80
2023/06/24 01:32:44;;;;;;;0.10;0.10;;;;;;;17.21;nan;101361.31;5012188;28;20034;-81
2023/06/24 01:35:23;;;;;;;0.10;0.10;;;;;;;17.31;nan;101363.78;5021036;28;20045;-80
2023/06/24 01:37:51;;;;;;;0.10;0.10;;;;;;;17.28;nan;101366.78;5027067;28;20101;-80
2023/06/24 01:40:27;;;;;;;0.10;0.10;;;;;;;17.36;nan;101367.56;5020376;28;20049;-81
2023/06/24 01:42:57;;;;;;;0.10;0.10;;;;;;;17.34;nan;101360.75;5025724;28;20075;-81
2023/06/24 01:45:27;;;;;;;0.10;0.10;;;;;;;17.31;nan;101367.28;5028779;28;20041;-79
2023/06/24 01:48:11;;;;;;;0.10;0.10;;;;;;;17.28;nan;101359.63;5011546;28;20067;-80
2023/06/24 01:50:39;;;;;;;0.10;0.10;;;;;;;17.31;nan;101361.94;5020753;28;20085;-79
2023/06/24 01:53:07;;;;;;;0.10;0.10;;;;;;;17.30;nan;101370.94;5014268;28;20045;-80
2023/06/24 01:55:34;;;;;;;0.10;0.10;;;;;;;17.30;nan;101362.91;5021532;28;20449;-79
2023/06/24 01:58:01;;;;;;;0.10;0.10;;;;;;;17.29;nan;101365.78;5030304;28;20107;-79
2023/06/24 02:00:27;;;;;;;0.10;0.10;;;;;;;17.24;nan;101371.66;5022699;28;20112;-79
2023/06/24 02:02:54;;;;;;;0.10;0.10;;;;;;;17.22;nan;101364.81;5005929;28;20064;-79
2023/06/24 02:05:21;;;;;;;0.10;0.10;;;;;;;17.22;nan;101359.47;5018954;28;20036;-79
2023/06/24 02:07:49;;;;;;;0.10;0.10;;;;;;;17.23;nan;101369.16;5025793;28;20076;-79
2023/06/24 02:10:15;;;;;;;0.10;0.10;;;;;;;17.19;nan;101363.34;5018514;28;20435;-80
2023/06/24 02:12:43;;;;;;;0.10;0.10;;;;;;;17.16;nan;101371.69;5022126;28;20036;-80
2023/06/24 02:15:10;;;;;;;0.10;0.10;;;;;;;17.12;nan;101354.34;5024371;28;20065;-78
2023/06/24 02:17:37;;;;;;;0.10;0.10;;;;;;;17.11;nan;101356.19;5023725;28;20033;-79
2023/06/24 02:20:07;;;;;;;0.10;0.10;;;;;;;17.12;nan;101354.34;5026052;28;20092;-80
2023/06/24 02:22:32;;;;;;;0.10;0.10;;;;;;;17.12;nan;101365.03;5025796;28;20045;-81
2023/06/24 02:25:21;;;;;;;0.10;0.10;;;;;;;17.16;nan;101369.00;5026094;28;20037;-80
2023/06/24 02:27:52;;;;;;;0.10;0.10;;;;;;;17.09;nan;101368.03;4994736;28;20356;-80
2023/06/24 02:30:39;;;;;;;0.10;0.10;;;;;;;17.05;nan;101362.22;5004656;28;20043;-83
2023/06/24 02:33:07;;;;;;;0.10;0.10;;;;;;;17.03;nan;101366.91;5027002;28;20061;-80
2023/06/24 02:35:32;;;;;;;0.10;0.10;;;;;;;17.02;nan;101362.59;5020912;28;20044;-80
2023/06/24 02:37:57;;;;;;;0.10;0.10;;;;;;;17.01;nan;101362.75;5019873;28;20171;-81
2023/06/24 02:40:22;;;;;;;0.10;0.10;;;;;;;16.95;nan;101361.59;5028136;28;20130;-80
2023/06/24 02:42:48;;;;;;;0.17;0.17;;;;;;;16.91;nan;101358.44;5010169;28;20180;-80
2023/06/24 02:45:15;;;;;;;0.10;0.10;;;;;;;16.90;nan;101361.28;5016630;28;20038;-81
2023/06/24 02:47:43;;;;;;;0.10;0.10;;;;;;;16.86;nan;101357.31;5016568;28;20156;-81
2023/06/24 02:50:10;;;;;;;0.10;0.10;;;;;;;16.85;nan;101360.97;5034728;28;20083;-80
2023/06/24 02:52:37;;;;;;;0.10;0.10;;;;;;;16.83;nan;101363.81;5030373;28;20041;-80
2023/06/24 02:55:04;;;;;;;0.10;0.10;;;;;;;16.82;nan;101363.97;5038491;28;20120;-80
2023/06/24 02:57:34;;;;;;;0.10;0.10;;;;;;;16.78;nan;101360.81;5038679;28;20037;-81
2023/06/24 03:00:05;;;;;;;0.10;0.10;;;;;;;16.72;nan;101366.81;5017656;28;20065;-81
2023/06/24 03:02:32;;;;;;;0.10;0.10;;;;;;;16.70;nan;101363.50;5011293;28;20041;-79
2023/06/24 03:05:01;;;;;;;0.10;0.10;;;;;;;16.70;nan;101361.63;5020832;28;20053;-81
2023/06/24 03:07:27;;;;;;;0.10;0.10;;;;;;;16.64;nan;101359.69;5023302;28;20022;-81
2023/06/24 03:09:55;;;;;;;0.10;0.10;;;;;;;16.64;nan;101361.53;5005899;28;20060;-81
2023/06/24 03:12:33;;;;;;;0.10;0.10;;;;;;;16.61;nan;101359.16;5027503;28;20037;-82
2023/06/24 03:15:00;;;;;;;0.10;0.10;;;;;;;16.59;nan;101367.38;5021187;28;20037;-80
2023/06/24 03:17:35;;;;;;;0.10;0.10;;;;;;;16.55;nan;101369.53;5007599;28;20042;-83
2023/06/24 03:20:01;;;;;;;0.10;0.10;;;;;;;16.54;nan;101367.88;4984699;28;20034;-83
2023/06/24 03:22:26;;;;;;;0.10;0.10;;;;;;;16.51;nan;101370.03;5015877;28;20575;-82
2023/06/24 03:24:52;;;;;;;0.10;0.10;;;;;;;16.54;nan;101367.03;5033844;28;20431;-80
2023/06/24 03:27:18;;;;;;;0.10;0.10;;;;;;;16.56;nan;101371.22;5024524;28;20115;-81
2023/06/24 03:29:44;;;;;;;0.10;0.10;;;;;;;16.52;nan;101367.22;5022833;28;20121;-79
2023/06/24 03:32:09;;;;;;;0.10;0.10;;;;;;;16.53;nan;101370.72;5020707;28;20034;-80
2023/06/24 03:34:35;;;;;;;0.10;0.10;;;;;;;16.57;nan;101361.38;5010837;28;20037;-81
2023/06/24 03:37:00;;;;;;;0.10;0.10;;;;;;;16.53;nan;101368.88;5025199;28;20102;-83
2023/06/24 03:39:25;;;;;;;0.10;0.10;;;;;;;16.53;nan;101370.72;5028264;28;20033;-82
2023/06/24 03:41:51;;;;;;;0.10;0.10;;;;;;;16.58;nan;101359.53;5030446;28;20042;-80
2023/06/24 03:44:16;;;;;;;0.20;0.20;;;;;;;16.54;nan;101369.69;5031713;28;20571;-81
2023/06/24 03:46:41;;;;;;;0.10;0.10;;;;;;;16.54;nan;101373.22;5033356;28;20304;-81
2023/06/24 03:49:07;;;;;;;0.10;0.10;;;;;;;16.55;nan;101371.38;5019343;28;20569;-83
2023/06/24 03:51:32;;;;;;;0.10;0.10;;;;;;;16.55;nan;101369.53;5026600;28;20364;-82
2023/06/24 03:53:58;;;;;;;0.10;0.10;;;;;;;16.61;nan;101376.00;5025007;28;20438;-81
2023/06/24 03:56:23;;;;;;;0.10;0.10;;;;;;;16.61;nan;101378.69;5004483;28;20037;-82
2023/06/24 03:58:48;;;;;;;0.10;0.10;;;;;;;16.64;nan;101370.34;5033014;28;20407;-80
2023/06/24 04:01:14;;;;;;;0.10;0.10;;;;;;;16.66;nan;101371.03;5028547;28;20141;-80
2023/06/24 04:03:39;;;;;;;0.10;0.10;;;;;;;16.70;nan;101376.84;5010319;28;20109;-82
2023/06/24 04:06:04;;;;;;;0.10;0.10;;;;;;;16.69;nan;101375.19;5024853;28;20095;-81
2023/06/24 04:08:30;;;;;;;0.10;0.10;;;;;;;16.65;nan;101369.34;5008972;28;20501;-82
2023/06/24 04:10:56;;;;;;;0.10;0.10;;;;;;;16.63;nan;101371.34;5017078;28;20064;-82
2023/06/24 04:13:22;;;;;;;0.10;0.10;;;;;;;16.70;nan;101380.34;5030275;28;20500;-80
2023/06/24 04:15:47;;;;;;;0.10;0.10;;;;;;;16.77;nan;101383.16;5037396;28;20113;-80
2023/06/24 04:18:12;;;;;;;0.17;0.17;;;;;;;16.88;nan;101385.50;5047471;28;20089;-80
2023/06/24 04:20:37;;;;;;;0.10;0.10;;;;;;;16.92;nan;101385.97;5020681;28;20435;-80
2023/06/24 04:23:05;;;;;;;0.10;0.10;;;;;;;16.96;nan;101388.13;5021037;28;20030;-80
2023/06/24 04:25:31;;;;;;;0.10;0.10;;;;;;;17.04;nan;101392.63;5025026;28;20060;-80
2023/06/24 04:27:57;;;;;;;0.10;0.10;;;;;;;17.08;nan;101383.25;5034512;28;20566;-80
2023/06/24 04:30:22;;;;;;;0.10;0.10;;;;;;;17.11;nan;101396.28;5033147;28;20037;-80
2023/06/24 04:32:47;;;;;;;0.10;0.10;;;;;;;17.16;nan;101401.09;5010238;28;20072;-81
2023/06/24 04:35:13;;;;;;;0.10;0.10;;;;;;;17.22;nan;101400.41;5036939;28;20040;-81
2023/06/24 04:37:38;;;;;;;0.10;0.10;;;;;;;17.30;nan;101396.84;5029768;28;20839;-80
2023/06/24 04:40:04;;;;;;;0.10;0.10;;;;;;;17.36;nan;101410.34;5026279;28;20124;-80
2023/06/24 04:42:29;;;;;;;0.10;0.10;;;;;;;17.45;nan;101403.13;5026800;28;22112;-80
2023/06/24 04:44:55;;;;;;;0.10;0.10;;;;;;;17.48;nan;101408.13;5025183;28;20610;-80
2023/06/24 04:47:20;;;;;;;0.10;0.10;;;;;;;17.55;nan;101403.75;5015852;28;20111;-80
2023/06/24 04:49:45;;;;;;;0.10;0.10;;;;;;;17.61;nan;101408.41;5031599;28;20068;-80
2023/06/24 04:52:12;;;;;;;0.10;0.10;;;;;;;17.72;nan;101401.78;5022039;28;20030;-80
2023/06/24 04:54:37;;;;;;;0.10;0.10;;;;;;;17.77;nan;101410.13;5031419;28;20610;-80
2023/06/24 04:57:07;;;;;;;0.10;0.10;;;;;;;17.89;nan;101413.25;5022892;28;20064;-81
2023/06/24 04:59:33;;;;;;;0.10;0.10;;;;;;;17.89;nan;101415.91;5039594;28;20087;-80
2023/06/24 05:01:58;;;;;;;0.10;0.10;;;;;;;17.98;nan;101414.03;5030638;28;20089;-80
2023/06/24 05:04:23;;;;;;;0.10;0.10;;;;;;;18.15;nan;101415.56;5030047;28;20092;-80
2023/06/24 05:06:48;;;;;;;0.10;0.10;;;;;;;18.19;nan;101416.88;5038117;28;20299;-80
2023/06/24 05:09:14;;;;;;;0.10;0.10;;;;;;;18.30;nan;101417.44;5036873;28;20271;-80
2023/06/24 05:11:40;;;;;;;0.10;0.10;;;;;;;18.41;nan;101422.38;5036778;28;20300;-80
2023/06/24 05:14:05;;;;;;;0.10;0.10;;;;;;;18.46;nan;101420.81;5030274;28;20033;-80
2023/06/24 05:16:31;;;;;;;0.10;0.10;;;;;;;18.48;nan;101419.81;5028402;28;20091;-80
2023/06/24 05:18:56;;;;;;;0.10;0.10;;;;;;;18.57;nan;101421.38;5037318;28;20034;-80
2023/06/24 05:21:21;;;;;;;0.10;0.10;;;;;;;18.71;nan;101425.09;5028349;28;20383;-80
2023/06/24 05:23:46;;;;;;;0.10;0.10;;;;;;;18.80;nan;101432.06;5026762;28;20446;-80
2023/06/24 05:26:12;;;;;;;0.10;0.10;;;;;;;18.86;nan;101426.78;5025461;28;20291;-80
2023/06/24 05:28:37;;;;;;;0.10;0.10;;;;;;;18.85;nan;101430.50;5034343;28;20053;-80
2023/06/24 05:31:02;;;;;;;0.10;0.10;;;;;;;18.95;nan;101430.22;5027878;28;20038;-80
2023/06/24 05:33:27;;;;;;;0.10;0.10;;;;;;;19.08;nan;101421.53;5018492;28;20363;-80
2023/06/24 05:35:53;;;;;;;0.10;0.10;;;;;;;19.23;nan;101429.53;5027087;28;20042;-81
2023/06/24 05:38:18;;;;;;;0.10;0.10;;;;;;;19.34;nan;101431.75;5021976;28;20097;-80
2023/06/24 05:40:43;;;;;;;0.10;0.10;;;;;;;19.41;nan;101431.84;5028914;28;20033;-81
2023/06/24 05:43:10;;;;;;;0.10;0.10;;;;;;;19.53;nan;101435.69;5025321;28;20272;-81
2023/06/24 05:45:35;;;;;;;0.10;0.10;;;;;;;19.64;nan;101432.53;5023597;28;20060;-81
2023/06/24 05:48:02;;;;;;;0.10;0.10;;;;;;;19.90;nan;101431.16;5020018;28;20041;-81
2023/06/24 05:50:28;;;;;;;0.10;0.10;;;;;;;20.10;nan;101429.50;5029960;28;20041;-81
2023/06/24 05:52:53;;;;;;;0.10;0.10;;;;;;;20.46;nan;101435.81;5030636;28;20076;-81
2023/06/24 05:55:18;;;;;;;0.10;0.10;;;;;;;20.88;nan;101428.66;5028143;28;20312;-81
2023/06/24 05:57:44;;;;;;;0.10;0.10;;;;;;;21.46;nan;101436.44;5012423;28;20064;-81
2023/06/24 06:00:09;;;;;;;0.10;0.10;;;;;;;22.03;nan;101440.50;5011871;28;20034;-81
2023/06/24 06:02:35;;;;;;;0.10;0.10;;;;;;;22.52;nan;101438.47;5024319;28;20034;-81
2023/06/24 06:05:01;;;;;;;0.10;0.10;;;;;;;22.81;nan;101440.72;5006966;28;20065;-81
2023/06/24 06:07:26;;;;;;;0.00;0.00;;;;;;;23.27;nan;101438.97;5013610;28;20040;-81
2023/06/24 06:09:52;;;;;;;0.00;0.00;;;;;;;23.59;nan;101422.81;5031122;28;20055;-80
2023/06/24 06:12:17;;;;;;;0.10;0.10;;;;;;;23.94;nan;101440.28;5018911;28;20678;-81
2023/06/24 06:14:43;;;;;;;0.00;0.00;;;;;;;24.37;nan;101444.13;5014740;28;20034;-83
2023/06/24 06:17:08;;;;;;;0.03;0.03;;;;;;;24.83;nan;101448.28;5016452;28;20037;-83
2023/06/24 06:19:36;;;;;;;0.00;0.00;;;;;;;25.25;nan;101440.34;5030142;28;20337;-83
2023/06/24 06:22:02;;;;;;;0.00;0.00;;;;;;;25.62;nan;101443.00;5007492;28;20038;-81
2023/06/24 06:24:27;;;;;;;0.00;0.00;;;;;;;26.04;nan;101451.16;5005700;28;20136;-84
2023/06/24 06:26:52;;;;;;;0.00;0.00;;;;;;;26.40;nan;101438.50;5023935;28;20037;-81
2023/06/24 06:29:18;;;;;;;0.00;0.00;;;;;;;26.70;nan;101441.13;5030939;28;20026;-80
2023/06/24 06:31:43;;;;;;;0.00;0.00;;;;;;;26.92;nan;101444.03;5006839;28;20030;-83
2023/06/24 06:34:08;;;;;;;0.00;0.00;;;;;;;26.72;nan;101444.44;5011430;28;20367;-84
2023/06/24 06:36:34;;;;;;;0.00;0.00;;;;;;;26.77;nan;101447.25;5022080;28;20289;-81
2023/06/24 06:38:59;;;;;;;0.00;0.00;;;;;;;27.17;nan;101442.91;5005916;28;20305;-80
2023/06/24 06:41:24;;;;;;;0.00;0.00;;;;;;;27.55;nan;101445.06;5024850;28;20053;-82
2023/06/24 06:43:51;;;;;;;0.00;0.00;;;;;;;27.92;nan;101450.13;5001705;28;20331;-82
2023/06/24 06:46:16;;;;;;;0.00;0.00;;;;;;;28.28;nan;101442.56;5016515;28;20065;-84
2023/06/24 06:48:41;;;;;;;0.00;0.00;;;;;;;28.52;nan;101446.78;5036330;28;20053;-83
2023/06/24 06:51:07;;;;;;;0.00;0.00;;;;;;;28.75;nan;101443.03;5010770;28;20269;-82
2023/06/24 06:53:32;;;;;;;0.00;0.00;;;;;;;28.72;nan;101434.53;5029820;28;20038;-83
2023/06/24 06:55:58;;;;;;;0.00;0.00;;;;;;;28.71;nan;101443.78;5003880;28;20126;-82
2023/06/24 06:58:24;;;;;;;0.00;0.00;;;;;;;29.02;nan;101445.81;5016785;28;20276;-84
2023/06/24 07:00:49;;;;;;;0.00;0.00;;;;;;;29.33;nan;101434.50;5013535;28;20424;-83
2023/06/24 07:03:14;;;;;;;0.00;0.00;;;;;;;29.66;nan;101438.13;5027094;28;20033;-84
2023/06/24 07:05:40;;;;;;;0.00;0.00;;;;;;;29.81;nan;101430.13;5032242;28;20470;-83
2023/06/24 07:08:05;;;;;;;0.00;0.00;;;;;;;29.93;nan;101435.41;5033084;28;20367;-84
2023/06/24 07:10:30;;;;;;;0.00;0.00;;;;;;;30.00;nan;101438.75;5009481;28;20034;-84
2023/06/24 07:12:57;;;;;;;0.00;0.00;;;;;;;29.71;nan;101433.59;5013248;28;20030;-82
2023/06/24 07:15:24;;;;;;;0.00;0.00;;;;;;;29.83;nan;101427.97;5026271;28;20056;-81
2023/06/24 07:17:49;;;;;;;0.00;0.00;;;;;;;29.82;nan;101424.44;5003739;28;20045;-81
2023/06/24 07:20:15;;;;;;;0.00;0.00;;;;;;;29.88;nan;101429.91;5031145;28;20033;-81
2023/06/24 07:22:40;;;;;;;0.00;0.00;;;;;;;30.03;nan;101427.31;5032859;28;20339;-80
2023/06/24 07:25:06;;;;;;;0.00;0.00;;;;;;;30.17;nan;101425.78;5008006;28;20053;-81
2023/06/24 07:27:31;;;;;;;0.00;0.00;;;;;;;30.13;nan;101426.56;5024193;28;20083;-80
2023/06/24 07:29:56;;;;;;;0.00;0.00;;;;;;;30.44;nan;101422.22;5030820;28;20033;-80
2023/06/24 07:32:21;;;;;;;0.00;0.00;;;;;;;30.53;nan;101431.53;5019161;28;20273;-82
2023/06/24 07:34:47;;;;;;;0.00;0.00;;;;;;;30.26;nan;101420.72;5025580;28;20476;-81
2023/06/24 07:37:40;;;;;;;0.00;0.00;;;;;;;30.23;nan;101430.22;5022208;28;20309;-83
2023/06/24 07:40:09;;;;;;;0.00;0.00;;;;;;;30.38;nan;101418.59;5030293;28;20935;-81
2023/06/24 07:42:34;;;;;;;0.00;0.00;;;;;;;30.66;nan;101422.06;5034536;28;20084;-82
2023/06/24 07:44:59;;;;;;;0.00;0.00;;;;;;;31.15;nan;101424.47;5012383;28;20049;-80
2023/06/24 07:47:25;;;;;;;0.00;0.00;;;;;;;31.64;nan;101436.94;5010790;28;20415;-82
2023/06/24 07:49:51;;;;;;;0.00;0.00;;;;;;;31.84;nan;101434.19;5028115;28;20285;-81
2023/06/24 07:52:16;;;;;;;0.00;0.00;;;;;;;32.03;nan;101428.22;5019015;28;20057;-81
2023/06/24 07:54:43;;;;;;;0.00;0.00;;;;;;;31.76;nan;101434.75;5021403;28;20689;-81
2023/06/24 07:57:08;;;;;;;0.00;0.00;;;;;;;31.86;nan;101428.47;5029928;28;20124;-81
2023/06/24 07:59:33;;;;;;;0.00;0.00;;;;;;;32.03;nan;101428.22;5030728;28;20054;-82
2023/06/24 08:01:59;;;;;;;0.00;0.00;;;;;;;32.39;nan;101423.53;5003061;28;20069;-82
2023/06/24 08:04:24;;;;;;;0.00;0.00;;;;;;;32.67;nan;101418.56;5023828;28;20491;-81
2023/06/24 08:06:49;;;;;;;0.00;0.00;;;;;;;32.95;nan;101430.81;5020913;28;20355;-82
2023/06/24 08:09:16;;;;;;;0.00;0.00;;;;;;;33.11;nan;101426.09;5028406;28;20068;-81
2023/06/24 08:11:42;;;;;;;0.00;0.00;;;;;;;33.16;nan;101420.59;5018336;28;20041;-82
2023/06/24 08:14:07;;;;;;;0.00;0.00;;;;;;;33.08;nan;101422.00;5023747;28;20045;-82
2023/06/24 08:16:33;;;;;;;0.00;0.00;;;;;;;33.03;nan;101421.19;5030104;28;20033;-81
2023/06/24 08:18:58;;;;;;;0.00;0.00;;;;;;;33.71;nan;101415.88;5027920;28;20273;-81
2023/06/24 08:21:23;;;;;;;0.00;0.00;;;;;;;34.06;nan;101419.41;5026034;28;20029;-83
2023/06/24 08:23:50;;;;;;;0.00;0.00;;;;;;;34.26;nan;101413.78;5021899;28;20045;-81
2023/06/24 08:26:15;;;;;;;0.00;0.00;;;;;;;34.59;nan;101418.66;5016966;28;20121;-80
2023/06/24 08:29:18;;;;;;;0.00;0.00;;;;;;;34.84;nan;101412.88;5007631;28;20524;-81
2023/06/24 08:32:22;;;;;;;0.00;0.00;;;;;;;35.21;nan;101416.00;5020089;28;20025;-82
2023/06/24 08:34:47;;;;;;;;;;;;;;;35.60;nan;101415.72;5029074;28;20515;-81
2023/06/24 08:37:12;;;;;;;;;;;;;;;35.81;nan;101412.66;5004726;28;19925;-81
2023/06/24 08:39:38;;;;;;;;;;;;;;;35.80;nan;101405.50;5004637;28;20012;-80
2023/06/24 08:42:04;;;;;;;;;;;;;;;35.33;nan;101410.03;5021946;28;19972;-83
2023/06/24 08:44:29;;;;;;;;;;;;;;;35.13;nan;101411.97;5028562;28;20302;-80
2023/06/24 08:46:54;;;;;;;;;;;;;;;35.45;nan;101414.00;5004653;28;20035;-81
2023/06/24 08:49:22;;;;;;;;;;;;;;;36.02;nan;101411.16;5033771;28;19960;-83
2023/06/24 08:51:50;;;;;;;;;;;;;;;35.93;nan;101408.28;5020910;28;19921;-79
2023/06/24 08:54:16;;;;;;;;;;;;;;;36.01;nan;101409.53;5024649;28;19913;-79
2023/06/24 08:56:41;;;;;;;;;;;;;;;35.97;nan;101407.66;5026378;28;19928;-81
2023/06/24 08:59:06;;;;;;;;;;;;;;;36.21;nan;101405.63;5014893;28;20402;-79
2023/06/24 09:01:31;;;;;;;;;;;;;;;36.59;nan;101397.22;5034541;28;19960;-81
2023/06/24 09:03:57;;;;;;;;;;;;;;;36.98;nan;101404.91;5018240;28;19925;-78
2023/06/24 09:06:22;;;;;;;;;;;;;;;37.34;nan;101401.38;5029321;28;19984;-79
2023/06/24 09:08:57;;;;;;;;;;;;;;;37.88;nan;101395.09;5023918;28;19921;-83
2023/06/24 09:11:23;;;;;;;;;;;;;;;38.18;nan;101386.03;5032092;28;20440;-81
2023/06/24 09:13:53;;;;;;;;;;;;;;;38.41;nan;101392.31;5033639;28;19929;-80
2023/06/24 09:16:19;;;;;;;;;;;;;;;38.77;nan;101396.84;5024440;28;19928;-78
2023/06/24 09:18:47;;;;;;;;;;;;;;;38.77;nan;101391.31;5023098;28;19917;-84
2023/06/24 09:21:13;;;;;;;;;;;;;;;38.93;nan;101382.59;5030424;28;19940;-80
2023/06/24 09:23:39;;;;;;;;;;;;;;;39.00;nan;101386.50;5007934;28;19917;-80
2023/06/24 09:26:05;;;;;;;;;;;;;;;39.18;nan;101390.06;5023764;28;19949;-79
2023/06/24 09:28:30;;;;;;;;;;;;;;;38.99;nan;101382.09;5031541;28;19921;-83
2023/06/24 09:31:08;;;;;;;;;;;;;;;37.98;nan;101383.81;4994116;28;20000;-80
2023/06/24 09:33:34;;;;;;;;;;;;;;;37.55;nan;101367.81;5017918;28;19960;-81
2023/06/24 09:36:01;;;;;;;;;;;;;;;37.11;nan;101367.41;5012683;28;19932;-80
2023/06/24 09:38:34;;;;;;;;;;;;;;;37.01;nan;101372.34;5018028;28;20004;-80
2023/06/24 09:41:02;;;;;;;;;;;;;;;36.82;nan;101365.00;5026723;28;19923;-80
2023/06/24 09:43:27;;;;;;;;;;;;;;;36.81;nan;101371.66;4995386;28;19956;-79
2023/06/24 09:45:52;;;;;;;;;;;;;;;36.44;nan;101362.47;5030082;28;19917;-79
2023/06/24 09:48:17;;;;;;;;;;;;;;;37.10;nan;101362.22;5033388;28;19921;-80
2023/06/24 09:50:43;;;;;;;;;;;;;;;36.90;nan;101356.03;5002014;28;19917;-80
2023/06/24 09:53:08;;;;;;;;;;;;;;;36.47;nan;101358.28;5001494;28;19917;-80
2023/06/24 09:55:33;;;;;;;;;;;;;;;37.54;nan;101350.44;4998147;28;19917;-81
2023/06/24 09:57:59;;;;;;;;;;;;;;;38.50;nan;101344.56;5012372;28;20302;-81
2023/06/24 10:00:26;;;;;;;;;;;;;;;38.90;nan;101342.50;5013382;28;20402;-80
2023/06/24 10:02:53;;;;;;;;;;;;;;;39.12;nan;101349.91;5019028;28;20687;-81
2023/06/24 10:05:18;;;;;;;;;;;;;;;39.30;nan;101342.38;5015205;28;20040;-80
2023/06/24 10:07:43;;;;;;;;;;;;;;;38.52;nan;101337.63;5010000;28;19964;-83
2023/06/24 10:10:09;;;;;;;;;;;;;;;38.41;nan;101326.00;5031905;28;19920;-79
2023/06/24 10:12:35;;;;;;;;;;;;;;;38.22;nan;101326.28;5033975;28;20005;-80
2023/06/24 10:15:00;;;;;;;;;;;;;;;37.16;nan;101325.13;5033689;28;19913;-79
2023/06/24 10:17:26;;;;;;;;;;;;;;;37.75;nan;101325.88;5008280;28;19985;-80
2023/06/24 10:19:52;;;;;;;;;;;;;;;38.42;nan;101321.28;5012248;28;19929;-79
2023/06/24 10:22:21;;;;;;;;;;;;;;;38.96;nan;101319.13;5024232;28;19921;-79
2023/06/24 10:24:50;;;;;;;;;;;;;;;39.18;nan;101309.03;5027457;28;19925;-80
2023/06/24 10:27:16;;;;;;;;;;;;;;;38.50;nan;101303.94;5032578;28;19913;-80
2023/06/24 10:29:46;;;;;;;;;;;;;;;38.78;nan;101309.16;5004528;28;19924;-79
2023/06/24 10:32:11;;;;;;;;;;;;;;;39.06;nan;101301.41;5022422;28;19924;-80
2023/06/24 10:34:36;;;;;;;;;;;;;;;40.20;nan;101290.84;5027879;28;19952;-81
2023/06/24 10:37:05;;;;;;;;;;;;;;;41.14;nan;101288.56;5032342;28;19949;-83
2023/06/24 10:39:37;;;;;;;;;;;;;;;41.93;nan;101290.44;5041814;28;19913;-82
2023/06/24 10:42:21;;;;;;;;;;;;;;;41.88;nan;101285.13;5020980;28;19970;-80
2023/06/24 10:44:47;;;;;;;;;;;;;;;42.20;nan;101287.00;5028228;28;20000;-79
2023/06/24 10:47:12;;;;;;;;;;;;;;;42.28;nan;101281.66;5007270;28;19921;-79
2023/06/24 10:49:37;;;;;;;;;;;;;;;42.31;nan;101273.47;5032120;28;19917;-81
2023/06/24 10:52:03;;;;;;;;;;;;;;;41.69;nan;101271.81;5020613;28;19913;-79
2023/06/24 10:54:28;;;;;;;;;;;;;;;41.52;nan;101268.06;5025833;28;20003;-79
2023/06/24 10:56:55;;;;;;;;;;;;;;;41.84;nan;101262.81;5025770;28;19917;-81
2023/06/24 10:59:20;;;;;;;;;;;;;;;42.38;nan;101259.81;5025483;28;19913;-79
2023/06/24 11:01:53;;;;;;;;;;;;;;;41.99;nan;101256.56;5028777;28;19919;-80
2023/06/24 11:04:18;;;;;;;;;;;;;;;42.62;nan;101252.53;5030727;28;20002;-79
2023/06/24 11:06:56;;;;;;;;;;;;;;;42.80;nan;101247.50;5011039;28;19913;-80
2023/06/24 11:09:21;;;;;;;;;;;;;;;42.87;nan;101244.13;5012270;28;20295;-81
2023/06/24 11:11:46;;;;;;;;;;;;;;;43.28;nan;101250.44;5013021;28;19913;-78
2023/06/24 11:14:11;;;;;;;;;;;;;;;43.40;nan;101236.41;5019084;28;19957;-79
2023/06/24 11:16:38;;;;;;;;;;;;;;;43.44;nan;101237.31;5005802;28;19923;-79
2023/06/24 11:19:05;;;;;;;;;;;;;;;43.55;nan;101238.41;5028223;28;19913;-79
2023/06/24 11:21:33;;;;;;;;;;;;;;;43.63;nan;101228.28;5008562;28;19917;-80
2023/06/24 11:24:07;;;;;;;;;;;;;;;43.33;nan;101228.69;5017111;28;19949;-79
2023/06/24 11:26:32;;;;;;;;;;;;;;;42.48;nan;101230.69;5039232;28;20011;-79
2023/06/24 11:28:58;;;;;;;;;;;;;;;42.27;nan;101232.81;5023531;28;20185;-79
2023/06/24 11:31:26;;;;;;;;;;;;;;;42.55;nan;101230.06;5025158;28;19914;-80
2023/06/24 11:33:51;;;;;;;;;;;;;;;42.41;nan;101225.72;5032371;28;19913;-79
2023/06/24 11:36:20;;;;;;;;;;;;;;;41.84;nan;101228.69;5008253;28;19928;-82
2023/06/24 11:38:45;;;;;;;;;;;;;;;39.58;nan;101215.53;5027252;28;19940;-81
2023/06/24 11:41:12;;;;;;;;;;;;;;;39.44;nan;101217.69;5026755;28;20386;-78
2023/06/24 11:43:37;;;;;;;;;;;;;;;40.50;nan;101219.56;5030968;28;20000;-84
2023/06/24 11:46:03;;;;;;;;;;;;;;;41.07;nan;101212.53;5033248;28;20028;-78
2023/06/24 11:48:31;;;;;;;;;;;;;;;41.76;nan;101210.94;5023213;28;19940;-80
2023/06/24 11:50:57;;;;;;;;;;;;;;;42.01;nan;101211.78;5019115;28;19919;-79
2023/06/24 11:53:40;;;;;;;;;;;;;;;42.08;nan;101212.00;5018742;28;20007;-82
2023/06/24 11:56:05;;;;;;;;;;;;;;;41.65;nan;101212.59;5026811;28;19918;-80
2023/06/24 11:58:34;;;;;;;;;;;;;;;41.93;nan;101204.34;5031886;28;20008;-81
2023/06/24 12:00:59;;;;;;;;;;;;;;;42.26;nan;101206.97;5010952;28;19964;-81